Pattonville, Texas
Current Conditions -  °F | °C
As of 8:15 PM on Saturday 22 Nov 2014 (Local Time) from KPRX Reporting Station
Overcast Overcast  
Wind Chill: 59°   Ceiling: 1600
Heat Index: 59°   Visibility: 10mi
Dew Point: 55°   Wind: 0mph
Humidity: 88%   Direction: NA
Pressure: 29.87"   Gusts: NA
Location:  33.58°N, 95.39°W
Report Text: KPRX 230215Z 00000KT 10SM BKN016 OVC021 15/13 A2987 RMK AO1 P0001
Loading
Personal Weather Stations






























Interactive Weather Map New forecast layout! Learn more

10-Day Weather Forecast

Advertisements
Track Severe Weather on mobile